HUAL Seoul — LADO6 — position and weather

sailwx.info

Track history (hours):
 
Tides and Currents Weather Stations Pressure Air Temp Water Temp Dewpoint Dewpoint Depression Visibility Wind Speed Wind Dir Waves Ship Positions

HUAL Seoul

Last reported at 2016-Jul-25 04:07 UTC. Time now 2016-Jul-26 12:10 UTC.
Position N 25°55' W 115°41'.

Type: Cargo ship. MMSI: 257496000.

Date/timePositionNaut miles runAvg speedWind from/ knotsBaromVisibWave heightAir tempDewpointWater temp
2016-Jul-25 04:07N 25°55' W 115°41'915.3
2016-Jul-25 03:33N 26°00' W 115°49'1515.2
2016-Jul-25 02:33N 26°09' W 116°02'3215.3
2016-Jul-25 00:28N 26°28' W 116°31'3415.2
2016-Jul-24 22:15N 26°48' W 117°02'8115.5
2016-Jul-24 17:04N 27°36' W 118°15'1117.0
2016-Jul-24 16:26N 27°42' W 118°24'3515.5
2016-Jul-24 14:10N 28°03' W 118°56'2715.1
2016-Jul-24 12:25N 28°18' W 119°21'1315.3
2016-Jul-24 11:33N 28°26' W 119°33'1515.0
2016-Jul-24 10:33N 28°35' W 119°47'1515.1
2016-Jul-24 09:33N 28°44' W 120°01'1515.2
2016-Jul-24 08:33N 28°53' W 120°14'1515.3
2016-Jul-24 07:34N 29°02' W 120°28'1515.1
2016-Jul-24 06:34N 29°11' W 120°42'1515.0
2016-Jul-24 05:32N 29°20' W 120°57'1515.3
2016-Jul-24 04:34N 29°28' W 121°11'1515.4
2016-Jul-24 03:33N 29°38' W 121°25'1515.3
2016-Jul-24 02:34N 29°47' W 121°39'1515.3
2016-Jul-24 01:34N 29°56' W 121°53'1515.3
2016-Jul-24 00:34N 30°04' W 122°08'1515.3
2016-Jul-23 23:34N 30°12' W 122°23'1515.2
2016-Jul-23 22:33N 30°21' W 122°38'1515.2
2016-Jul-23 21:34N 30°29' W 122°53'1616.4
2016-Jul-23 20:34N 30°37' W 123°09'1717.3
2016-Jul-23 19:34N 30°47' W 123°26'1917.5
2016-Jul-23 18:30N 30°57' W 123°44'1816.9
2016-Jul-23 17:27N 31°06' W 124°02'1415.2
2016-Jul-23 16:33N 31°13' W 124°15'1515.0
2016-Jul-23 15:33N 31°21' W 124°30'1515.4
2016-Jul-23 14:33N 31°29' W 124°45'1515.3
2016-Jul-23 13:33N 31°37' W 125°00'2115.4
2016-Jul-23 12:13N 31°48' W 125°21'1015.3
2016-Jul-23 11:33N 31°54' W 125°31'4815.1
2016-Jul-23 08:24N 32°19' W 126°19'3315.2
2016-Jul-23 06:15N 32°36' W 126°52'2715.0
2016-Jul-23 04:29N 32°51' W 127°18'1415.2
2016-Jul-23 03:33N 32°58' W 127°33'1515.2
2016-Jul-23 02:33N 33°06' W 127°48'1615.2
2016-Jul-23 01:29N 33°15' W 128°05'1715.4
2016-Jul-23 00:24N 33°23' W 128°21'  
Track history (hours):
 
Tides and Currents Weather Stations Pressure Air Temp Water Temp Dewpoint Dewpoint Depression Visibility Wind Speed Wind Dir Waves Ship Positions

HUAL Seoul

Last reported at 2016-Jul-25 04:07 UTC. Time now 2016-Jul-26 12:10 UTC.
Position N 25°55' W 115°41'.

Type: Cargo ship. MMSI: 257496000.

Date/timePositionNaut miles runAvg speedWind from/ knotsBaromVisibWave heightAir tempDewpointWater temp
2016-Jul-25 04:07N 25°55' W 115°41'915.3
2016-Jul-25 03:33N 26°00' W 115°49'1515.2
2016-Jul-25 02:33N 26°09' W 116°02'3215.3
2016-Jul-25 00:28N 26°28' W 116°31'3415.2
2016-Jul-24 22:15N 26°48' W 117°02'8115.5
2016-Jul-24 17:04N 27°36' W 118°15'1117.0
2016-Jul-24 16:26N 27°42' W 118°24'3515.5
2016-Jul-24 14:10N 28°03' W 118°56'2715.1
2016-Jul-24 12:25N 28°18' W 119°21'1315.3
2016-Jul-24 11:33N 28°26' W 119°33'1515.0
2016-Jul-24 10:33N 28°35' W 119°47'1515.1
2016-Jul-24 09:33N 28°44' W 120°01'1515.2
2016-Jul-24 08:33N 28°53' W 120°14'1515.3
2016-Jul-24 07:34N 29°02' W 120°28'1515.1
2016-Jul-24 06:34N 29°11' W 120°42'1515.0
2016-Jul-24 05:32N 29°20' W 120°57'1515.3
2016-Jul-24 04:34N 29°28' W 121°11'1515.4
2016-Jul-24 03:33N 29°38' W 121°25'1515.3
2016-Jul-24 02:34N 29°47' W 121°39'1515.3
2016-Jul-24 01:34N 29°56' W 121°53'1515.3
2016-Jul-24 00:34N 30°04' W 122°08'1515.3
2016-Jul-23 23:34N 30°12' W 122°23'1515.2
2016-Jul-23 22:33N 30°21' W 122°38'1515.2
2016-Jul-23 21:34N 30°29' W 122°53'1616.4
2016-Jul-23 20:34N 30°37' W 123°09'1717.3
2016-Jul-23 19:34N 30°47' W 123°26'1917.5
2016-Jul-23 18:30N 30°57' W 123°44'1816.9
2016-Jul-23 17:27N 31°06' W 124°02'1415.2
2016-Jul-23 16:33N 31°13' W 124°15'1515.0
2016-Jul-23 15:33N 31°21' W 124°30'1515.4
2016-Jul-23 14:33N 31°29' W 124°45'1515.3
2016-Jul-23 13:33N 31°37' W 125°00'2115.4
2016-Jul-23 12:13N 31°48' W 125°21'1015.3
2016-Jul-23 11:33N 31°54' W 125°31'4815.1
2016-Jul-23 08:24N 32°19' W 126°19'3315.2
2016-Jul-23 06:15N 32°36' W 126°52'2715.0
2016-Jul-23 04:29N 32°51' W 127°18'1415.2
2016-Jul-23 03:33N 32°58' W 127°33'1515.2
2016-Jul-23 02:33N 33°06' W 127°48'1615.2
2016-Jul-23 01:29N 33°15' W 128°05'1715.4
2016-Jul-23 00:24N 33°23' W 128°21'  

Dump ship's entire track history